Time;durP1;ratioP1;P1;durP2;ratioP2;P2;SDS_P1;SDS_P2;PMS_P1;PMS_P2;Temp;Humidity;BMP_temperature;BMP_pressure;BME280_temperature;BME280_humidity;BME280_pressure;Samples;Min_cycle;Max_cycle;Signal;HPM_P1;HPM_P2
2021/03/05 00:00:57;;;;;;;11.17;7.33;;;5.50;99.90;;;;;;5094618;28;20031;-70
2021/03/05 00:03:23;;;;;;;13.23;7.73;;;5.40;99.90;;;;;;5094594;28;20111;-71
2021/03/05 00:05:48;;;;;;;10.53;7.27;;;5.50;99.90;;;;;;5093732;28;20024;-71
2021/03/05 00:08:17;;;;;;;11.47;7.07;;;5.50;99.90;;;;;;5094750;28;20173;-71
2021/03/05 00:10:43;;;;;;;10.23;7.07;;;5.50;99.90;;;;;;5093978;28;20468;-72
2021/03/05 00:13:09;;;;;;;12.97;7.73;;;5.50;99.90;;;;;;5094731;28;20036;-71
2021/03/05 00:15:38;;;;;;;12.00;7.93;;;5.50;99.90;;;;;;5094719;28;20476;-71
2021/03/05 00:18:04;;;;;;;11.90;7.23;;;5.50;99.90;;;;;;5094684;28;20465;-72
2021/03/05 00:20:32;;;;;;;11.13;7.10;;;5.40;99.90;;;;;;5093630;28;20039;-71
2021/03/05 00:22:59;;;;;;;12.30;7.83;;;5.40;99.90;;;;;;5094613;28;20111;-71
2021/03/05 00:25:26;;;;;;;14.40;8.20;;;5.40;99.90;;;;;;5094558;28;20443;-71
2021/03/05 00:27:52;;;;;;;12.23;7.50;;;5.40;99.90;;;;;;5094497;28;20024;-72
2021/03/05 00:30:18;;;;;;;10.63;6.87;;;5.30;99.90;;;;;;5094092;28;20032;-72
2021/03/05 00:32:44;;;;;;;13.53;7.93;;;5.30;99.90;;;;;;5093936;28;20016;-72
2021/03/05 00:35:13;;;;;;;14.67;7.97;;;5.40;99.90;;;;;;5094016;28;20051;-71
2021/03/05 00:37:39;;;;;;;13.33;7.53;;;5.40;99.90;;;;;;5093593;28;20381;-72
2021/03/05 00:40:07;;;;;;;11.60;7.60;;;5.50;99.90;;;;;;5093834;28;20032;-72
2021/03/05 00:42:33;;;;;;;12.20;7.17;;;5.50;99.90;;;;;;5093892;28;20110;-74
2021/03/05 00:44:59;;;;;;;10.40;7.17;;;5.60;99.90;;;;;;5093961;28;20116;-72
2021/03/05 00:47:24;;;;;;;12.73;7.63;;;5.60;99.90;;;;;;5093831;28;20031;-71
2021/03/05 00:49:50;;;;;;;11.60;7.63;;;5.60;99.90;;;;;;5112617;28;20020;-72
2021/03/05 00:52:15;;;;;;;14.37;7.60;;;5.60;99.90;;;;;;5110831;28;20052;-72
2021/03/05 00:54:41;;;;;;;14.90;7.60;;;5.60;99.90;;;;;;5093745;28;20119;-72
2021/03/05 00:57:07;;;;;;;11.10;7.77;;;5.60;99.90;;;;;;5093409;28;20108;-72
2021/03/05 00:59:32;;;;;;;14.97;7.73;;;5.70;99.90;;;;;;5093456;28;20024;-72
2021/03/05 01:01:58;;;;;;;16.93;9.07;;;5.70;99.90;;;;;;5092080;28;20028;-72
2021/03/05 01:04:24;;;;;;;12.43;8.43;;;5.70;99.90;;;;;;5093537;28;20028;-72
2021/03/05 01:06:49;;;;;;;11.67;8.33;;;5.70;99.90;;;;;;5093180;28;20050;-72
2021/03/05 01:09:15;;;;;;;13.00;9.33;;;5.70;99.90;;;;;;5092815;28;20024;-75
2021/03/05 01:11:40;;;;;;;15.33;9.10;;;5.70;99.90;;;;;;5092099;28;20116;-75
2021/03/05 01:14:06;;;;;;;12.67;9.07;;;5.70;99.90;;;;;;5090953;28;20023;-75
2021/03/05 01:16:32;;;;;;;14.03;9.03;;;5.70;99.90;;;;;;5092186;28;20072;-75
2021/03/05 01:18:57;;;;;;;14.50;9.70;;;5.80;99.90;;;;;;5092212;28;20020;-75
2021/03/05 01:21:23;;;;;;;12.53;8.70;;;5.80;99.90;;;;;;5092327;28;20034;-75
2021/03/05 01:23:49;;;;;;;13.27;9.20;;;5.90;99.90;;;;;;5092016;28;20020;-75
2021/03/05 01:26:15;;;;;;;17.27;9.73;;;5.80;99.90;;;;;;5092085;28;20490;-75
2021/03/05 01:28:45;;;;;;;15.60;10.37;;;5.80;99.90;;;;;;5092190;28;20027;-75
2021/03/05 01:31:11;;;;;;;13.17;9.40;;;5.70;99.90;;;;;;5090820;28;20498;-75
2021/03/05 01:33:36;;;;;;;13.83;9.73;;;5.70;99.90;;;;;;5090367;28;20031;-75
2021/03/05 01:36:02;;;;;;;17.20;10.43;;;5.80;99.90;;;;;;5091902;28;20016;-75
2021/03/05 01:38:28;;;;;;;16.57;10.37;;;5.80;99.90;;;;;;5090481;28;20463;-75
2021/03/05 01:40:53;;;;;;;18.93;10.77;;;5.80;99.90;;;;;;5091879;28;20036;-75
2021/03/05 01:43:19;;;;;;;16.73;10.17;;;5.80;99.90;;;;;;5091544;28;20027;-75
2021/03/05 01:45:46;;;;;;;16.67;9.63;;;5.80;99.90;;;;;;5091673;28;20028;-75
2021/03/05 01:48:17;;;;;;;16.37;9.30;;;5.80;99.90;;;;;;5090361;28;20020;-75
2021/03/05 01:51:12;;;;;;;16.77;10.37;;;5.80;99.90;;;;;;5090385;28;20067;-75
2021/03/05 01:53:40;;;;;;;13.70;10.17;;;5.70;99.90;;;;;;5091544;28;20028;-75
2021/03/05 01:56:07;;;;;;;12.60;8.40;;;5.80;99.90;;;;;;5091236;28;20019;-75
2021/03/05 01:58:34;;;;;;;12.30;9.20;;;5.70;99.90;;;;;;5091538;28;20059;-75
2021/03/05 02:01:08;;;;;;;15.97;9.27;;;5.80;99.90;;;;;;5091306;28;20016;-75
2021/03/05 02:03:35;;;;;;;13.03;8.93;;;5.90;99.90;;;;;;5091373;28;20481;-75
2021/03/05 02:06:02;;;;;;;13.13;9.17;;;5.90;99.90;;;;;;5091352;28;20164;-75
2021/03/05 02:08:28;;;;;;;13.30;9.93;;;5.80;99.90;;;;;;5092333;28;20372;-74
2021/03/05 02:10:54;;;;;;;12.60;8.63;;;5.80;99.90;;;;;;5092388;28;20077;-74
2021/03/05 02:13:19;;;;;;;11.93;8.80;;;5.70;99.90;;;;;;5092243;28;20020;-74
2021/03/05 02:15:46;;;;;;;16.60;10.27;;;5.80;99.90;;;;;;5092251;28;20043;-74
2021/03/05 02:18:17;;;;;;;13.27;9.93;;;5.70;99.90;;;;;;5091839;28;20105;-74
2021/03/05 02:20:51;;;;;;;16.83;9.73;;;5.70;99.90;;;;;;5092139;28;20065;-74
2021/03/05 02:23:29;;;;;;;17.80;9.70;;;5.80;99.90;;;;;;5092412;28;20032;-74
2021/03/05 02:26:26;;;;;;;15.67;9.50;;;5.80;99.90;;;;;;5091003;28;20358;-74
2021/03/05 02:29:29;;;;;;;16.00;10.00;;;5.80;99.90;;;;;;5070978;28;20025;-74
2021/03/05 02:32:01;;;;;;;14.27;10.47;;;5.80;99.90;;;;;;5071819;28;20037;-74
2021/03/05 02:34:30;;;;;;;15.60;11.23;;;5.80;99.90;;;;;;5079268;28;20020;-74
2021/03/05 02:37:08;;;;;;;18.87;11.13;;;5.80;99.90;;;;;;5092038;28;20027;-73
2021/03/05 02:40:09;;;;;;;15.03;10.43;;;5.80;99.90;;;;;;5090687;28;20032;-73
2021/03/05 02:42:37;;;;;;;15.20;9.87;;;5.80;99.90;;;;;;5091824;28;20031;-74
2021/03/05 02:45:13;;;;;;;16.53;10.37;;;5.80;99.90;;;;;;5091673;28;20023;-74
2021/03/05 02:47:42;;;;;;;16.27;10.53;;;5.90;99.90;;;;;;5091247;28;20388;-74
2021/03/05 02:50:10;;;;;;;15.47;10.30;;;6.00;99.90;;;;;;5111799;28;20024;-74
2021/03/05 02:52:38;;;;;;;12.87;10.40;;;5.90;99.90;;;;;;5112044;28;20035;-74
2021/03/05 02:55:06;;;;;;;14.00;10.20;;;5.80;99.90;;;;;;5111936;27;20376;-74
2021/03/05 02:57:36;;;;;;;17.53;10.90;;;5.90;99.90;;;;;;5111953;28;20136;-74
2021/03/05 03:00:05;;;;;;;17.33;10.80;;;5.90;99.90;;;;;;5111713;28;20095;-74
2021/03/05 03:02:32;;;;;;;16.60;10.93;;;5.90;99.90;;;;;;5111915;28;20057;-74
2021/03/05 03:05:00;;;;;;;17.83;10.97;;;5.90;99.90;;;;;;5111924;28;20024;-74
2021/03/05 03:07:26;;;;;;;14.70;11.17;;;5.90;99.90;;;;;;5110418;28;20042;-74
2021/03/05 03:09:52;;;;;;;16.30;10.43;;;6.00;99.90;;;;;;5110986;28;20028;-74
2021/03/05 03:12:19;;;;;;;17.23;9.80;;;5.90;99.90;;;;;;5111840;27;20055;-74
2021/03/05 03:14:47;;;;;;;16.93;10.43;;;5.90;99.90;;;;;;5111795;27;20551;-74
2021/03/05 03:17:14;;;;;;;14.77;10.30;;;5.90;99.90;;;;;;5110663;28;20091;-74
2021/03/05 03:19:45;;;;;;;14.13;9.50;;;5.90;99.90;;;;;;5110441;28;20049;-74
2021/03/05 03:22:11;;;;;;;12.90;9.63;;;5.80;99.90;;;;;;5110811;28;20165;-73
2021/03/05 03:24:37;;;;;;;13.40;9.60;;;5.80;99.90;;;;;;5111654;28;20106;-74
2021/03/05 03:27:02;;;;;;;13.50;9.80;;;5.80;99.90;;;;;;5110214;28;20031;-74
2021/03/05 03:29:28;;;;;;;11.13;8.53;;;5.80;99.90;;;;;;5111603;28;20468;-74
2021/03/05 03:31:54;;;;;;;11.97;8.90;;;5.80;99.90;;;;;;5101563;28;20260;-75
2021/03/05 03:34:21;;;;;;;12.70;8.67;;;5.80;99.90;;;;;;5089720;28;20532;-75
2021/03/05 03:36:48;;;;;;;11.93;8.33;;;5.90;99.90;;;;;;5090356;28;20030;-75
2021/03/05 03:39:13;;;;;;;14.37;9.03;;;5.80;99.90;;;;;;5090281;28;20026;-75
2021/03/05 03:41:39;;;;;;;12.67;7.87;;;5.80;99.90;;;;;;5089956;28;20016;-75
2021/03/05 03:44:07;;;;;;;13.90;7.63;;;5.70;99.90;;;;;;5090224;28;20027;-75
2021/03/05 03:46:34;;;;;;;11.23;7.73;;;5.70;99.90;;;;;;5090706;28;20048;-75
2021/03/05 03:49:10;;;;;;;13.07;8.37;;;5.70;99.90;;;;;;5090108;28;20095;-75
2021/03/05 03:51:41;;;;;;;11.27;8.67;;;5.80;99.90;;;;;;5089640;28;20427;-75
2021/03/05 03:54:07;;;;;;;14.23;9.30;;;5.80;99.90;;;;;;5089959;28;20547;-75
2021/03/05 03:56:36;;;;;;;13.67;8.40;;;5.80;99.90;;;;;;5090278;28;20043;-75
2021/03/05 03:59:02;;;;;;;12.63;9.30;;;5.80;99.90;;;;;;5089036;28;20024;-75
2021/03/05 04:01:30;;;;;;;14.70;9.23;;;5.70;99.90;;;;;;5088863;28;20047;-75
2021/03/05 04:03:56;;;;;;;11.77;8.63;;;5.70;99.90;;;;;;5090207;28;20024;-75
2021/03/05 04:06:25;;;;;;;16.90;9.83;;;5.70;99.90;;;;;;5090121;28;20073;-75
2021/03/05 04:08:52;;;;;;;13.67;8.87;;;5.70;99.90;;;;;;5090114;28;20469;-75
2021/03/05 04:11:19;;;;;;;16.33;8.97;;;5.60;99.90;;;;;;5091030;28;20046;-75
2021/03/05 04:13:46;;;;;;;11.40;8.53;;;5.60;99.90;;;;;;5093874;28;20058;-75
2021/03/05 04:16:12;;;;;;;16.30;9.17;;;5.60;99.90;;;;;;5093680;28;20020;-75
2021/03/05 04:18:38;;;;;;;13.90;9.57;;;5.60;99.90;;;;;;5093980;28;20027;-75
2021/03/05 04:21:13;;;;;;;14.73;8.83;;;5.60;99.90;;;;;;5093845;28;20089;-75
2021/03/05 04:23:38;;;;;;;14.87;9.87;;;5.60;99.90;;;;;;5093793;28;20059;-75
2021/03/05 04:26:04;;;;;;;15.50;9.37;;;5.60;99.90;;;;;;5093525;28;20465;-75
2021/03/05 04:28:29;;;;;;;14.67;8.70;;;5.70;99.90;;;;;;5092079;28;20084;-75
2021/03/05 04:30:56;;;;;;;16.47;8.50;;;5.80;99.90;;;;;;5093141;28;20043;-75
2021/03/05 04:33:21;;;;;;;14.33;9.93;;;5.80;99.90;;;;;;5091711;28;20024;-75
2021/03/05 04:35:47;;;;;;;13.13;9.33;;;5.80;99.90;;;;;;5093063;28;20157;-75
2021/03/05 04:38:13;;;;;;;11.43;8.20;;;5.70;99.90;;;;;;5093466;28;20429;-75
2021/03/05 04:40:38;;;;;;;11.60;8.63;;;5.60;99.90;;;;;;5093366;28;20084;-76
2021/03/05 04:43:04;;;;;;;12.80;8.80;;;5.60;99.90;;;;;;5093169;28;20423;-75
2021/03/05 04:45:30;;;;;;;14.23;8.70;;;5.60;99.90;;;;;;5093108;28;20380;-75
2021/03/05 04:47:55;;;;;;;13.40;8.77;;;5.50;99.90;;;;;;5093310;28;20028;-75
2021/03/05 04:50:21;;;;;;;14.40;8.93;;;5.60;99.90;;;;;;5092675;28;20040;-75
2021/03/05 04:52:46;;;;;;;15.23;10.67;;;5.60;99.90;;;;;;5092925;28;20141;-75
2021/03/05 04:55:12;;;;;;;12.70;9.00;;;5.60;99.90;;;;;;5091869;28;20028;-75
2021/03/05 04:57:38;;;;;;;13.73;10.03;;;5.60;99.90;;;;;;5093212;28;20031;-75
2021/03/05 05:00:04;;;;;;;15.70;11.63;;;5.70;99.90;;;;;;5091423;28;20050;-75
2021/03/05 05:02:30;;;;;;;16.20;11.43;;;5.60;99.90;;;;;;5091252;28;20437;-75
2021/03/05 05:04:56;;;;;;;16.43;11.27;;;5.60;99.90;;;;;;5092454;28;20060;-75
2021/03/05 05:07:21;;;;;;;16.23;11.77;;;5.50;99.90;;;;;;5092566;28;20035;-75
2021/03/05 05:09:47;;;;;;;17.17;12.27;;;5.50;99.90;;;;;;5092270;28;20016;-75
2021/03/05 05:12:12;;;;;;;18.53;14.20;;;5.50;99.90;;;;;;5092316;28;20028;-75
2021/03/05 05:14:38;;;;;;;19.17;14.00;;;5.40;99.90;;;;;;5092226;28;20031;-76
2021/03/05 05:17:03;;;;;;;21.27;14.90;;;5.50;99.90;;;;;;5092322;28;20062;-75
2021/03/05 05:19:29;;;;;;;21.93;15.40;;;5.50;99.90;;;;;;5092198;28;20031;-76
2021/03/05 05:21:55;;;;;;;21.23;15.50;;;5.50;99.90;;;;;;5092006;28;20024;-76
2021/03/05 05:24:20;;;;;;;25.53;17.10;;;5.60;99.90;;;;;;5091651;28;20070;-76
2021/03/05 05:26:46;;;;;;;28.20;17.87;;;5.50;99.90;;;;;;5091807;28;20476;-74
2021/03/05 05:29:12;;;;;;;21.87;16.30;;;5.50;99.90;;;;;;5092899;28;20031;-73
2021/03/05 05:31:37;;;;;;;22.93;16.10;;;5.40;99.90;;;;;;5093067;28;20041;-74
2021/03/05 05:34:03;;;;;;;22.80;16.50;;;5.40;99.90;;;;;;5093229;28;20027;-73
2021/03/05 05:36:28;;;;;;;25.23;15.73;;;5.40;99.90;;;;;;5092712;28;20114;-73
2021/03/05 05:38:54;;;;;;;23.17;16.07;;;5.40;99.90;;;;;;5091613;28;20480;-73
2021/03/05 05:41:23;;;;;;;25.47;17.50;;;5.60;99.90;;;;;;5092754;28;20354;-73
2021/03/05 05:43:49;;;;;;;24.83;17.00;;;5.40;99.90;;;;;;5093075;28;20024;-73
2021/03/05 05:46:17;;;;;;;22.10;15.33;;;5.40;99.90;;;;;;5092803;28;20139;-73
2021/03/05 05:48:46;;;;;;;21.00;14.10;;;5.60;99.90;;;;;;5091533;28;20461;-73
2021/03/05 05:51:24;;;;;;;19.20;13.53;;;5.50;99.90;;;;;;5091941;28;20048;-73
2021/03/05 05:53:51;;;;;;;16.50;11.00;;;5.50;99.90;;;;;;5091311;28;20073;-73
2021/03/05 05:56:18;;;;;;;16.03;10.50;;;5.40;99.90;;;;;;5092006;28;20056;-74
2021/03/05 05:58:45;;;;;;;14.17;10.43;;;5.30;99.90;;;;;;5091128;28;20032;-73
2021/03/05 06:01:11;;;;;;;14.40;10.00;;;5.30;99.90;;;;;;5089558;28;20058;-73
2021/03/05 06:03:37;;;;;;;16.23;11.50;;;5.20;99.90;;;;;;5090955;28;20125;-73
2021/03/05 06:06:03;;;;;;;14.30;10.23;;;5.10;99.90;;;;;;5090650;28;20024;-74
2021/03/05 06:08:29;;;;;;;13.60;9.80;;;5.00;99.90;;;;;;5091287;28;20414;-72
2021/03/05 06:10:55;;;;;;;15.07;10.90;;;4.90;99.90;;;;;;5091682;28;20062;-73
2021/03/05 06:13:24;;;;;;;14.97;10.60;;;4.80;99.90;;;;;;5090380;28;20030;-73
2021/03/05 06:16:10;;;;;;;15.37;10.73;;;4.90;99.90;;;;;;5090533;28;20020;-76
2021/03/05 06:18:36;;;;;;;13.17;9.83;;;4.80;99.90;;;;;;5089147;28;20129;-73
2021/03/05 06:21:02;;;;;;;12.37;9.47;;;4.90;99.90;;;;;;5089063;28;20049;-73
2021/03/05 06:23:27;;;;;;;12.33;9.67;;;4.90;99.90;;;;;;5090976;28;20605;-73
2021/03/05 06:26:00;;;;;;;14.43;9.57;;;4.90;99.90;;;;;;5089899;28;20024;-73
2021/03/05 06:28:26;;;;;;;12.63;9.63;;;4.80;99.90;;;;;;5091705;28;20118;-72
2021/03/05 06:30:53;;;;;;;10.17;8.40;;;4.80;99.90;;;;;;5090016;28;20028;-75
2021/03/05 06:33:32;;;;;;;11.03;8.60;;;4.80;99.90;;;;;;5090009;28;20692;-76
2021/03/05 06:36:18;;;;;;;11.50;8.37;;;4.90;99.90;;;;;;5089922;28;20099;-76
2021/03/05 06:38:46;;;;;;;12.57;9.83;;;4.80;99.90;;;;;;5088672;28;20095;-76
2021/03/05 06:41:19;;;;;;;12.70;9.70;;;4.70;99.90;;;;;;5088944;28;20165;-76
2021/03/05 06:44:04;;;;;;;14.60;10.17;;;4.60;99.90;;;;;;5089427;28;20032;-76
2021/03/05 06:46:40;;;;;;;12.35;10.18;;;4.60;99.90;;;;;;5090578;28;20103;-76
2021/03/05 06:49:11;;;;;;;14.67;10.93;;;4.50;99.90;;;;;;5089662;28;20043;-75
2021/03/05 06:51:37;;;;;;;12.80;9.93;;;4.40;99.90;;;;;;5087791;28;20100;-76
2021/03/05 06:54:08;;;;;;;12.40;10.03;;;4.60;99.90;;;;;;5090408;28;20138;-77
2021/03/05 06:56:35;;;;;;;16.77;11.93;;;4.50;99.90;;;;;;5074543;28;20460;-75
2021/03/05 06:59:12;;;;;;;13.70;11.00;;;4.50;99.90;;;;;;5089963;28;20437;-75
2021/03/05 07:01:57;;;;;;;14.33;10.33;;;4.50;99.90;;;;;;5089392;28;20523;-75
2021/03/05 07:04:29;;;;;;;11.70;10.17;;;4.50;99.90;;;;;;5083937;28;20028;-74
2021/03/05 07:07:06;;;;;;;13.53;10.20;;;4.50;99.90;;;;;;5091475;28;20073;-74
2021/03/05 07:09:38;;;;;;;14.80;11.13;;;4.50;99.90;;;;;;5090543;28;20028;-72
2021/03/05 07:12:24;;;;;;;14.53;11.67;;;4.70;99.90;;;;;;5088880;28;20047;-73
2021/03/05 07:14:50;;;;;;;15.53;11.90;;;4.60;99.90;;;;;;5091107;28;20369;-71
2021/03/05 07:17:18;;;;;;;15.40;11.97;;;4.50;99.90;;;;;;5094045;28;20032;-71
2021/03/05 07:19:43;;;;;;;13.70;11.27;;;4.40;99.90;;;;;;5089565;28;20062;-71
2021/03/05 07:22:12;;;;;;;17.23;12.70;;;4.40;99.90;;;;;;5093935;28;20043;-71
2021/03/05 07:24:38;;;;;;;14.30;11.20;;;4.40;99.90;;;;;;5091405;28;20032;-72
2021/03/05 07:27:06;;;;;;;15.83;11.97;;;4.60;99.90;;;;;;5090811;28;20033;-72
2021/03/05 07:29:43;;;;;;;15.60;11.50;;;4.50;99.90;;;;;;5089609;28;20028;-72
2021/03/05 07:32:21;;;;;;;13.20;10.57;;;4.50;99.90;;;;;;5091032;28;20461;-71
2021/03/05 07:35:06;;;;;;;15.10;10.60;;;4.50;99.90;;;;;;5091450;28;20082;-71
2021/03/05 07:37:46;;;;;;;16.08;11.55;;;4.40;99.90;;;;;;5091037;28;20055;-71
2021/03/05 07:40:14;;;;;;;15.17;11.87;;;4.40;99.90;;;;;;5094514;28;20390;-71
2021/03/05 07:42:40;;;;;;;13.80;10.93;;;4.40;99.90;;;;;;5091131;28;20028;-71
2021/03/05 07:45:07;;;;;;;14.47;10.73;;;4.30;99.90;;;;;;5091391;28;20104;-70
2021/03/05 07:47:36;;;;;;;16.73;11.70;;;4.30;99.90;;;;;;5105370;28;20075;-71
2021/03/05 07:50:04;;;;;;;13.90;10.63;;;4.20;99.90;;;;;;5099189;28;20042;-71
2021/03/05 07:52:30;;;;;;;13.50;10.97;;;4.20;99.90;;;;;;5094503;28;20036;-71
2021/03/05 07:54:56;;;;;;;17.03;12.17;;;4.10;99.90;;;;;;5094793;28;20526;-71
2021/03/05 07:57:24;;;;;;;15.63;11.80;;;4.10;99.90;;;;;;5093070;28;20460;-71
2021/03/05 07:59:51;;;;;;;12.03;9.57;;;4.10;99.90;;;;;;5094575;28;20104;-71
2021/03/05 08:02:24;;;;;;;14.73;10.50;;;4.20;99.90;;;;;;5095027;28;20387;-72
2021/03/05 08:04:50;;;;;;;11.87;8.77;;;4.10;99.90;;;;;;5093775;28;20016;-71
2021/03/05 08:07:20;;;;;;;22.17;14.20;;;4.00;99.90;;;;;;5093480;28;20035;-75
2021/03/05 08:09:46;;;;;;;19.53;12.27;;;4.00;99.90;;;;;;5092612;28;20379;-76
2021/03/05 08:15:07;;;;;;;11.50;8.10;;;3.90;99.90;;;;;;5092713;28;20052;-71
2021/03/05 08:17:40;;;;;;;12.83;7.80;;;3.90;99.90;;;;;;5094217;28;20483;-71
2021/03/05 08:20:09;;;;;;;22.00;12.00;;;3.80;99.90;;;;;;5091983;28;20111;-72
2021/03/05 08:23:01;;;;;;;11.93;7.93;;;3.80;99.90;;;;;;5094047;28;20031;-70
2021/03/05 08:25:35;;;;;;;7.63;5.70;;;3.80;99.90;;;;;;5083305;28;20031;-70
2021/03/05 08:28:03;;;;;;;10.90;7.07;;;3.70;99.90;;;;;;5093338;28;20082;-70
2021/03/05 08:30:29;;;;;;;7.90;5.70;;;3.60;99.90;;;;;;5093956;28;20048;-70
2021/03/05 08:32:59;;;;;;;8.50;5.70;;;3.50;99.90;;;;;;5087455;28;20064;-70
2021/03/05 08:35:31;;;;;;;12.73;8.20;;;3.50;99.90;;;;;;5086865;28;20017;-71
2021/03/05 08:38:00;;;;;;;10.20;6.83;;;3.50;99.90;;;;;;5078622;28;20464;-70
2021/03/05 08:40:27;;;;;;;27.13;13.93;;;3.40;99.90;;;;;;5093958;28;20515;-71
2021/03/05 08:43:14;;;;;;;9.70;6.87;;;3.40;99.90;;;;;;5093650;28;20047;-71
2021/03/05 08:45:49;;;;;;;13.93;8.83;;;3.40;99.90;;;;;;5073750;28;20028;-71
2021/03/05 08:48:44;;;;;;;29.45;14.73;;;3.40;99.90;;;;;;5078792;28;20480;-71
2021/03/05 08:51:14;;;;;;;17.27;10.00;;;3.30;99.90;;;;;;5092926;28;20078;-71
2021/03/05 08:53:43;;;;;;;22.67;11.70;;;3.30;99.90;;;;;;5092921;28;20031;-71
2021/03/05 08:56:10;;;;;;;18.77;10.93;;;3.30;99.90;;;;;;5092832;28;20024;-71
2021/03/05 08:58:36;;;;;;;10.00;6.43;;;3.20;99.90;;;;;;5090659;28;20035;-71
2021/03/05 09:01:03;;;;;;;9.63;6.97;;;3.10;99.90;;;;;;5092651;28;20028;-71
2021/03/05 09:03:28;;;;;;;11.10;7.40;;;3.10;99.90;;;;;;5093678;28;20123;-71
2021/03/05 09:05:54;;;;;;;9.87;7.53;;;3.00;99.90;;;;;;5093474;28;20365;-71
2021/03/05 09:08:25;;;;;;;9.77;7.33;;;3.00;99.90;;;;;;5091696;28;20111;-71
2021/03/05 09:10:54;;;;;;;18.50;10.67;;;2.90;99.90;;;;;;5093408;28;20050;-71
2021/03/05 09:13:21;;;;;;;50.87;22.97;;;2.90;99.90;;;;;;5093031;28;20085;-71
2021/03/05 09:15:58;;;;;;;73.10;32.20;;;3.00;99.90;;;;;;5092016;28;20039;-71
2021/03/05 09:18:38;;;;;;;14.47;10.70;;;3.00;99.90;;;;;;5096054;28;20288;-71
2021/03/05 09:21:06;;;;;;;23.87;14.80;;;3.00;99.90;;;;;;5113240;28;20178;-71
2021/03/05 09:23:44;;;;;;;15.20;12.17;;;3.00;99.90;;;;;;5098196;28;20617;-71
2021/03/05 09:26:15;;;;;;;19.07;13.80;;;3.00;99.90;;;;;;5092950;28;20020;-71
2021/03/05 09:29:02;;;;;;;16.70;12.57;;;3.00;99.90;;;;;;5092292;28;20548;-70
2021/03/05 09:31:28;;;;;;;16.20;12.83;;;3.10;99.90;;;;;;5090310;28;20040;-74
2021/03/05 09:33:55;;;;;;;15.50;11.90;;;3.10;99.90;;;;;;5090505;28;20063;-74
2021/03/05 09:36:22;;;;;;;16.73;13.50;;;3.10;99.90;;;;;;5090820;28;20024;-75
2021/03/05 09:38:56;;;;;;;19.10;13.83;;;3.20;99.90;;;;;;5091402;28;20020;-75
2021/03/05 09:41:29;;;;;;;17.70;13.90;;;3.20;99.90;;;;;;5089678;28;20028;-74
2021/03/05 09:44:06;;;;;;;16.17;13.03;;;3.20;99.90;;;;;;5090887;28;20097;-75
2021/03/05 09:46:37;;;;;;;17.33;13.60;;;3.20;99.90;;;;;;5090080;28;20479;-75
2021/03/05 09:49:22;;;;;;;14.37;10.80;;;3.20;99.90;;;;;;5091384;28;20024;-75
2021/03/05 09:51:48;;;;;;;11.80;9.00;;;3.20;99.90;;;;;;5089209;28;20048;-74
2021/03/05 09:54:13;;;;;;;9.13;7.27;;;3.20;99.90;;;;;;5091694;28;20043;-72
2021/03/05 09:56:44;;;;;;;7.70;4.90;;;3.10;99.90;;;;;;5092706;28;20756;-72
2021/03/05 09:59:10;;;;;;;8.17;5.20;;;3.00;99.90;;;;;;5088384;28;20042;-75
2021/03/05 10:01:41;;;;;;;8.30;5.30;;;2.70;99.90;;;;;;5090891;28;20020;-74
2021/03/05 10:04:09;;;;;;;9.60;5.77;;;2.60;99.90;;;;;;5093092;28;20024;-77
2021/03/05 10:06:34;;;;;;;9.83;6.10;;;2.40;99.90;;;;;;5092649;28;20109;-77
2021/03/05 10:09:03;;;;;;;11.43;6.47;;;2.30;99.90;;;;;;5096971;28;20016;-77
2021/03/05 10:11:33;;;;;;;11.03;6.93;;;2.20;99.90;;;;;;5096237;28;20095;-72
2021/03/05 10:13:58;;;;;;;15.10;8.17;;;2.20;99.90;;;;;;5093552;28;20127;-79
2021/03/05 10:16:24;;;;;;;17.40;7.83;;;2.10;99.90;;;;;;5090643;28;20206;-80
2021/03/05 10:18:53;;;;;;;16.30;8.27;;;2.20;99.90;;;;;;5092729;28;20028;-75
2021/03/05 10:21:21;;;;;;;16.40;8.87;;;2.20;99.90;;;;;;5094020;28;20073;-75
2021/03/05 10:23:47;;;;;;;18.57;10.77;;;2.30;99.90;;;;;;5092668;28;20487;-75
2021/03/05 10:26:17;;;;;;;21.90;12.47;;;2.40;99.90;;;;;;5111931;28;20024;-75
2021/03/05 10:28:52;;;;;;;21.90;11.10;;;2.40;99.90;;;;;;5114515;28;20106;-75
2021/03/05 10:31:18;;;;;;;21.52;11.90;;;2.50;99.90;;;;;;5112643;28;20077;-76
2021/03/05 10:33:45;;;;;;;20.23;11.27;;;2.50;99.90;;;;;;5113370;28;20469;-72
2021/03/05 10:36:13;;;;;;;19.43;10.37;;;2.60;99.90;;;;;;5113809;28;20020;-73
2021/03/05 10:38:41;;;;;;;18.83;11.00;;;2.70;99.90;;;;;;5113124;28;20019;-79
2021/03/05 10:41:07;;;;;;;17.80;10.27;;;2.70;99.90;;;;;;5090796;28;20132;-79
2021/03/05 10:43:39;;;;;;;16.23;9.07;;;2.70;99.90;;;;;;5091881;28;20031;-78
2021/03/05 10:46:04;;;;;;;17.90;9.90;;;2.70;99.90;;;;;;5090198;28;20028;-78
2021/03/05 10:48:30;;;;;;;15.13;8.70;;;2.70;99.90;;;;;;5087278;28;20039;-77
2021/03/05 10:50:56;;;;;;;17.83;9.43;;;2.70;99.90;;;;;;5089815;28;20141;-77
2021/03/05 10:53:22;;;;;;;11.73;7.50;;;2.60;99.90;;;;;;5089734;28;20031;-78
2021/03/05 10:55:47;;;;;;;15.20;8.63;;;2.60;99.90;;;;;;5088359;28;20023;-78
2021/03/05 10:58:13;;;;;;;12.63;7.37;;;2.50;99.90;;;;;;5090440;28;20028;-78
2021/03/05 11:00:39;;;;;;;13.57;8.07;;;2.50;99.90;;;;;;5090265;28;20025;-77
2021/03/05 11:03:05;;;;;;;14.90;8.77;;;2.50;99.90;;;;;;5089669;28;20032;-77
2021/03/05 11:05:30;;;;;;;13.83;9.10;;;2.50;99.90;;;;;;5089793;28;20388;-77
2021/03/05 11:07:56;;;;;;;14.37;8.80;;;2.60;99.90;;;;;;5090211;28;20028;-77
2021/03/05 11:10:22;;;;;;;14.87;9.20;;;2.60;99.90;;;;;;5089458;28;20782;-77
2021/03/05 11:12:48;;;;;;;14.40;9.17;;;2.80;99.90;;;;;;5090086;28;20500;-77
2021/03/05 11:15:18;;;;;;;16.93;9.93;;;2.80;99.90;;;;;;5090351;28;20030;-77
2021/03/05 11:17:45;;;;;;;16.37;9.70;;;2.90;99.90;;;;;;5090121;28;20507;-77
2021/03/05 11:20:11;;;;;;;17.30;9.80;;;3.00;99.90;;;;;;5091015;28;20024;-77
2021/03/05 11:22:37;;;;;;;14.93;9.63;;;3.00;99.90;;;;;;5093242;28;20038;-77
2021/03/05 11:25:05;;;;;;;17.20;11.37;;;3.00;99.90;;;;;;5093115;28;20043;-77
2021/03/05 11:27:34;;;;;;;18.77;11.17;;;3.10;99.90;;;;;;5094287;28;20127;-77
2021/03/05 11:30:00;;;;;;;16.83;10.60;;;3.10;99.90;;;;;;5094290;28;20054;-77
2021/03/05 11:32:25;;;;;;;19.97;12.07;;;3.20;99.90;;;;;;5093722;28;20060;-77
2021/03/05 11:34:51;;;;;;;25.67;11.13;;;3.30;99.90;;;;;;5093966;28;20771;-77
2021/03/05 11:37:16;;;;;;;15.13;10.40;;;3.30;99.90;;;;;;5096543;28;20389;-74
2021/03/05 11:39:42;;;;;;;16.70;10.57;;;3.40;99.90;;;;;;5097401;28;20024;-75
2021/03/05 11:42:08;;;;;;;17.07;11.57;;;3.50;99.90;;;;;;5096890;28;20107;-74
2021/03/05 11:44:33;;;;;;;16.00;10.00;;;3.60;99.90;;;;;;5095978;28;20028;-74
2021/03/05 11:46:59;;;;;;;17.87;11.73;;;3.60;99.90;;;;;;5097313;28;20059;-82
2021/03/05 11:49:24;;;;;;;16.43;10.97;;;3.60;99.90;;;;;;5098737;28;20039;-74
2021/03/05 11:51:50;;;;;;;18.40;11.40;;;3.60;99.90;;;;;;5093359;28;20072;-76
2021/03/05 11:54:15;;;;;;;16.07;11.03;;;3.60;99.90;;;;;;5091786;28;20037;-75
2021/03/05 11:56:41;;;;;;;16.67;10.77;;;3.70;99.90;;;;;;5095295;28;20031;-71
2021/03/05 11:59:07;;;;;;;16.63;10.73;;;3.80;99.90;;;;;;5095243;28;20487;-71
2021/03/05 12:01:33;;;;;;;18.33;11.60;;;3.90;99.90;;;;;;5095642;28;20068;-71
2021/03/05 12:03:58;;;;;;;15.30;10.13;;;3.90;99.90;;;;;;5095690;28;20046;-71
2021/03/05 12:06:26;;;;;;;17.40;11.30;;;4.10;99.90;;;;;;5103809;28;20028;-71
2021/03/05 12:08:52;;;;;;;16.73;10.13;;;4.10;99.90;;;;;;5101550;28;20154;-71
2021/03/05 12:11:18;;;;;;;15.13;9.77;;;4.20;99.90;;;;;;5094340;28;20504;-72
2021/03/05 12:13:44;;;;;;;14.83;9.60;;;4.20;99.90;;;;;;5094498;28;20126;-72
2021/03/05 12:16:09;;;;;;;14.03;9.50;;;4.20;99.90;;;;;;5093076;28;20543;-75
2021/03/05 12:18:35;;;;;;;17.70;10.30;;;4.20;99.90;;;;;;5092910;28;20051;-75
2021/03/05 12:21:00;;;;;;;14.73;10.00;;;4.20;99.90;;;;;;5093279;28;20020;-75
2021/03/05 12:23:27;;;;;;;13.47;9.20;;;4.20;99.90;;;;;;5091619;28;20112;-75
2021/03/05 12:25:53;;;;;;;14.47;9.93;;;4.30;99.90;;;;;;5084775;28;20028;-76
2021/03/05 12:28:19;;;;;;;12.97;8.63;;;4.50;99.90;;;;;;5088984;28;20031;-75
2021/03/05 12:30:44;;;;;;;14.23;8.90;;;4.50;99.90;;;;;;5088551;28;20113;-72
2021/03/05 12:33:10;;;;;;;13.33;8.70;;;4.70;99.90;;;;;;5088680;28;20103;-72
2021/03/05 12:35:36;;;;;;;13.43;8.67;;;4.70;99.90;;;;;;5089870;28;20077;-72
2021/03/05 12:38:01;;;;;;;13.93;9.03;;;4.70;99.90;;;;;;5090940;28;20368;-75
2021/03/05 12:40:27;;;;;;;13.37;9.20;;;4.70;99.90;;;;;;5090693;28;20035;-72
2021/03/05 12:42:55;;;;;;;11.40;8.37;;;4.70;99.90;;;;;;5088204;28;20027;-73
2021/03/05 12:45:22;;;;;;;14.43;8.97;;;4.70;99.90;;;;;;5088701;28;20494;-72
2021/03/05 12:47:47;;;;;;;13.23;8.60;;;4.60;99.90;;;;;;5088904;28;20136;-72
2021/03/05 12:50:13;;;;;;;13.67;9.07;;;4.60;99.90;;;;;;5089935;28;20104;-72
2021/03/05 12:52:39;;;;;;;11.87;8.40;;;4.50;99.90;;;;;;5091301;28;20020;-72